createdAt,value
2023-05-09T00:01:13.532Z,100.00
2023-05-09T00:03:42.818Z,100.00
2023-05-09T00:06:11.740Z,100.00
2023-05-09T00:08:38.418Z,100.00
2023-05-09T00:11:05.385Z,100.00
2023-05-09T00:13:31.987Z,100.00
2023-05-09T00:15:58.974Z,100.00
2023-05-09T00:18:25.655Z,100.00
2023-05-09T00:20:52.324Z,100.00
2023-05-09T00:23:18.989Z,100.00
2023-05-09T00:25:45.726Z,100.00
2023-05-09T00:28:12.360Z,100.00
2023-05-09T00:30:39.107Z,100.00
2023-05-09T00:33:06.311Z,100.00
2023-05-09T00:35:33.068Z,100.00
2023-05-09T00:37:59.736Z,100.00
2023-05-09T00:40:26.462Z,100.00
2023-05-09T00:42:53.304Z,100.00
2023-05-09T00:45:19.943Z,100.00
2023-05-09T00:47:46.679Z,100.00
2023-05-09T00:50:13.914Z,100.00
2023-05-09T00:52:41.595Z,100.00
2023-05-09T00:55:09.275Z,100.00
2023-05-09T00:57:36.609Z,100.00
2023-05-09T01:00:04.601Z,100.00
2023-05-09T01:02:32.318Z,100.00
2023-05-09T01:04:59.256Z,100.00
2023-05-09T01:07:35.151Z,100.00
2023-05-09T01:10:16.117Z,100.00
2023-05-09T01:12:45.702Z,100.00
2023-05-09T01:15:32.789Z,100.00
2023-05-09T01:18:56.941Z,100.00
2023-05-09T01:21:29.358Z,100.00
2023-05-09T01:24:15.811Z,100.00
2023-05-09T01:27:27.047Z,100.00
2023-05-09T01:30:02.712Z,100.00
2023-05-09T01:32:32.107Z,100.00
2023-05-09T01:35:02.816Z,100.00
2023-05-09T01:37:33.002Z,100.00
2023-05-09T01:40:10.446Z,100.00
2023-05-09T01:42:49.969Z,100.00
2023-05-09T01:45:20.643Z,100.00
2023-05-09T01:47:49.780Z,100.00
2023-05-09T01:50:18.769Z,100.00
2023-05-09T01:52:48.510Z,100.00
2023-05-09T01:55:16.826Z,100.00
2023-05-09T01:57:45.026Z,100.00
2023-05-09T02:00:13.766Z,100.00
2023-05-09T02:02:41.550Z,100.00
2023-05-09T02:05:10.778Z,100.00
2023-05-09T02:07:38.823Z,100.00
2023-05-09T02:10:07.733Z,100.00
2023-05-09T02:12:34.534Z,100.00
2023-05-09T02:15:01.470Z,100.00
2023-05-09T02:17:30.827Z,100.00
2023-05-09T02:19:57.695Z,100.00
2023-05-09T02:22:24.936Z,100.00
2023-05-09T02:24:51.823Z,100.00
2023-05-09T02:27:20.075Z,100.00
2023-05-09T02:29:51.576Z,100.00
2023-05-09T02:32:24.458Z,100.00
2023-05-09T02:34:55.754Z,100.00
2023-05-09T02:37:23.586Z,100.00
2023-05-09T02:39:50.424Z,100.00
2023-05-09T02:42:21.611Z,100.00
2023-05-09T02:44:48.565Z,100.00
2023-05-09T02:47:15.303Z,100.00
2023-05-09T02:49:41.959Z,100.00
2023-05-09T02:52:09.044Z,100.00
2023-05-09T02:54:35.723Z,100.00
2023-05-09T02:57:06.573Z,100.00
2023-05-09T02:59:33.431Z,100.00
2023-05-09T03:02:01.720Z,100.00
2023-05-09T03:04:30.883Z,100.00
2023-05-09T03:06:57.613Z,100.00
2023-05-09T03:09:24.256Z,100.00
2023-05-09T03:11:50.964Z,100.00
2023-05-09T03:14:18.355Z,100.00
2023-05-09T03:16:45.123Z,100.00
2023-05-09T03:19:14.008Z,100.00
2023-05-09T03:21:41.601Z,100.00
2023-05-09T03:24:10.647Z,100.00
2023-05-09T03:26:37.380Z,100.00
2023-05-09T03:29:04.470Z,100.00
2023-05-09T03:31:31.207Z,100.00
2023-05-09T03:33:58.297Z,100.00
2023-05-09T03:36:25.598Z,100.00
2023-05-09T03:38:52.285Z,100.00
2023-05-09T03:41:19.069Z,100.00
2023-05-09T03:43:45.974Z,100.00
2023-05-09T03:46:12.793Z,100.00
2023-05-09T03:48:39.512Z,100.00
2023-05-09T03:51:06.429Z,100.00
2023-05-09T03:53:33.176Z,100.00
2023-05-09T03:56:02.290Z,100.00
2023-05-09T03:58:28.931Z,100.00
2023-05-09T04:00:56.051Z,100.00
2023-05-09T04:03:23.026Z,100.00
2023-05-09T04:05:51.063Z,100.00
2023-05-09T04:08:17.797Z,100.00
2023-05-09T04:10:44.698Z,100.00
2023-05-09T04:13:11.656Z,100.00
2023-05-09T04:15:38.457Z,100.00
2023-05-09T04:18:05.656Z,100.00
2023-05-09T04:20:32.378Z,100.00
2023-05-09T04:22:59.126Z,100.00
2023-05-09T04:25:26.167Z,100.00
2023-05-09T04:27:53.003Z,100.00
2023-05-09T04:30:20.967Z,100.00
2023-05-09T04:32:49.051Z,100.00
2023-05-09T04:35:17.495Z,100.00
2023-05-09T04:37:47.032Z,100.00
2023-05-09T04:40:14.736Z,100.00
2023-05-09T04:42:42.303Z,100.00
2023-05-09T04:45:11.739Z,100.00
2023-05-09T04:47:38.786Z,100.00
2023-05-09T04:50:06.034Z,100.00
2023-05-09T04:52:32.707Z,100.00
2023-05-09T04:54:59.332Z,100.00
2023-05-09T04:57:25.992Z,100.00
2023-05-09T04:59:53.010Z,100.00
2023-05-09T05:02:21.222Z,100.00
2023-05-09T05:04:48.160Z,100.00
2023-05-09T05:07:14.921Z,100.00
2023-05-09T05:09:41.601Z,100.00
2023-05-09T05:12:09.818Z,100.00
2023-05-09T05:14:36.988Z,100.00
2023-05-09T05:17:03.819Z,100.00
2023-05-09T05:19:30.581Z,100.00
2023-05-09T05:21:57.242Z,100.00
2023-05-09T05:24:23.981Z,100.00
2023-05-09T05:26:50.701Z,100.00
2023-05-09T05:29:17.903Z,100.00
2023-05-09T05:31:44.639Z,100.00
2023-05-09T05:34:11.472Z,100.00
2023-05-09T05:36:38.154Z,100.00
2023-05-09T05:39:04.853Z,100.00
2023-05-09T05:41:31.572Z,100.00
2023-05-09T05:43:58.235Z,100.00
2023-05-09T05:46:24.917Z,100.00
2023-05-09T05:48:51.628Z,100.00
2023-05-09T05:51:18.403Z,100.00
2023-05-09T05:53:45.463Z,100.00
2023-05-09T05:56:12.140Z,100.00
2023-05-09T05:58:38.906Z,100.00
2023-05-09T06:01:05.620Z,100.00
2023-05-09T06:03:32.526Z,100.00
2023-05-09T06:05:59.419Z,100.00
2023-05-09T06:08:26.084Z,100.00
2023-05-09T06:10:52.733Z,100.00
2023-05-09T06:13:19.489Z,100.00
2023-05-09T06:15:46.214Z,100.00
2023-05-09T06:18:12.983Z,100.00
2023-05-09T06:20:39.972Z,100.00
2023-05-09T06:23:06.680Z,100.00
2023-05-09T06:25:34.494Z,100.00
2023-05-09T06:28:01.192Z,100.00
2023-05-09T06:30:27.898Z,100.00
2023-05-09T06:32:55.351Z,100.00
2023-05-09T06:35:22.334Z,100.00
2023-05-09T06:37:49.514Z,100.00
2023-05-09T06:40:17.333Z,100.00
2023-05-09T06:42:44.829Z,100.00
2023-05-09T06:45:11.942Z,100.00
2023-05-09T06:47:38.692Z,100.00
2023-05-09T06:50:05.943Z,100.00
2023-05-09T06:52:32.605Z,100.00
2023-05-09T06:54:59.279Z,100.00
2023-05-09T06:57:26.064Z,100.00
2023-05-09T06:59:52.958Z,100.00
2023-05-09T07:02:21.818Z,100.00
2023-05-09T07:04:48.653Z,100.00
2023-05-09T07:07:16.279Z,100.00
2023-05-09T07:09:43.014Z,100.00
2023-05-09T07:12:09.641Z,100.00
2023-05-09T07:14:36.458Z,100.00
2023-05-09T07:17:21.236Z,100.00
2023-05-09T07:19:50.130Z,100.00
2023-05-09T07:22:16.987Z,100.00
2023-05-09T07:24:46.595Z,100.00
2023-05-09T07:27:13.329Z,100.00
2023-05-09T07:29:40.064Z,100.00
2023-05-09T07:32:06.905Z,100.00
2023-05-09T07:34:33.728Z,100.00
2023-05-09T07:37:00.468Z,100.00
2023-05-09T07:39:27.116Z,100.00
2023-05-09T07:41:53.750Z,100.00
2023-05-09T07:44:20.625Z,100.00
2023-05-09T07:46:47.273Z,100.00
2023-05-09T07:49:13.922Z,100.00
2023-05-09T07:51:41.414Z,100.00
2023-05-09T07:54:10.034Z,100.00
2023-05-09T07:56:37.056Z,100.00
2023-05-09T07:59:03.812Z,100.00
2023-05-09T08:01:30.692Z,100.00
2023-05-09T08:03:57.462Z,100.00
2023-05-09T08:06:24.494Z,100.00
2023-05-09T08:08:51.185Z,100.00
2023-05-09T08:11:18.018Z,100.00
2023-05-09T08:13:44.685Z,100.00
2023-05-09T08:16:11.419Z,100.00
2023-05-09T08:18:38.234Z,100.00
2023-05-09T08:21:05.443Z,100.00
2023-05-09T08:23:32.242Z,100.00
2023-05-09T08:25:59.257Z,100.00
2023-05-09T08:28:28.863Z,100.00
2023-05-09T08:30:56.881Z,100.00
2023-05-09T08:33:23.963Z,100.00
2023-05-09T08:35:54.143Z,100.00
2023-05-09T08:38:20.978Z,100.00
2023-05-09T08:40:48.177Z,100.00
2023-05-09T08:43:18.211Z,100.00
2023-05-09T08:45:52.363Z,100.00
2023-05-09T08:48:19.436Z,100.00
2023-05-09T08:50:46.356Z,100.00
2023-05-09T08:53:24.748Z,100.00
2023-05-09T08:55:52.937Z,100.00
2023-05-09T08:58:22.657Z,100.00
2023-05-09T09:00:50.597Z,100.00
2023-05-09T09:03:18.276Z,100.00
2023-05-09T09:05:48.162Z,100.00
2023-05-09T09:08:15.425Z,100.00
2023-05-09T09:10:47.007Z,100.00
2023-05-09T09:13:17.992Z,100.00
2023-05-09T09:15:46.970Z,100.00
2023-05-09T09:18:20.922Z,100.00
2023-05-09T09:20:57.573Z,100.00
2023-05-09T09:23:26.724Z,100.00
2023-05-09T09:26:06.452Z,100.00
2023-05-09T09:28:33.741Z,100.00
2023-05-09T09:31:01.302Z,100.00
2023-05-09T09:33:29.566Z,100.00
2023-05-09T09:35:57.207Z,100.00
2023-05-09T09:38:25.054Z,100.00
2023-05-09T09:40:51.700Z,100.00
2023-05-09T09:43:19.502Z,100.00
2023-05-09T09:45:50.649Z,100.00
2023-05-09T09:48:17.447Z,100.00
2023-05-09T09:50:44.143Z,100.00
2023-05-09T09:53:10.866Z,100.00
2023-05-09T09:55:49.055Z,100.00
2023-05-09T09:58:21.946Z,100.00
2023-05-09T10:01:07.906Z,100.00
2023-05-09T10:03:42.739Z,100.00
2023-05-09T10:06:10.987Z,100.00
2023-05-09T10:08:37.838Z,100.00
2023-05-09T10:11:04.629Z,100.00
2023-05-09T10:13:34.083Z,100.00
2023-05-09T10:16:01.759Z,100.00
2023-05-09T10:18:31.045Z,100.00
2023-05-09T10:21:03.802Z,100.00
2023-05-09T10:23:31.917Z,100.00
2023-05-09T10:26:03.605Z,100.00
2023-05-09T10:28:33.235Z,100.00
2023-05-09T10:31:13.061Z,100.00
2023-05-09T10:33:46.129Z,100.00
2023-05-09T10:36:15.445Z,99.92
2023-05-09T10:38:42.813Z,99.97
2023-05-09T10:41:11.180Z,100.00
2023-05-09T10:43:38.112Z,100.00
2023-05-09T10:46:05.645Z,99.91
2023-05-09T10:48:36.531Z,99.98
2023-05-09T10:51:04.643Z,98.89
2023-05-09T10:53:43.662Z,98.03
2023-05-09T10:56:23.113Z,96.82
2023-05-09T10:58:50.409Z,94.89
2023-05-09T11:01:30.788Z,94.04
2023-05-09T11:03:59.936Z,93.92
2023-05-09T11:06:42.669Z,93.31
2023-05-09T11:09:39.043Z,93.48
2023-05-09T11:12:05.893Z,92.33
2023-05-09T11:14:41.440Z,91.51
2023-05-09T11:17:10.676Z,92.67
2023-05-09T11:19:47.368Z,92.93
2023-05-09T11:22:21.461Z,90.95
2023-05-09T11:24:50.143Z,89.11
2023-05-09T11:27:23.686Z,89.35
2023-05-09T11:29:52.571Z,89.34
2023-05-09T11:32:30.855Z,90.93
2023-05-09T11:35:26.384Z,91.53
2023-05-09T11:38:00.527Z,89.26
2023-05-09T11:40:28.422Z,87.43
2023-05-09T11:42:58.267Z,87.60
2023-05-09T11:45:28.448Z,88.11
2023-05-09T11:47:57.109Z,86.85
2023-05-09T11:50:24.741Z,87.08
2023-05-09T11:52:51.638Z,88.69
2023-05-09T11:55:24.962Z,87.51
2023-05-09T11:57:53.903Z,86.92
2023-05-09T12:00:22.694Z,88.23
2023-05-09T12:02:51.046Z,86.97
2023-05-09T12:05:20.404Z,86.56
2023-05-09T12:07:48.158Z,86.51
2023-05-09T12:10:20.779Z,86.42
2023-05-09T12:12:50.027Z,87.27
2023-05-09T12:15:17.793Z,86.69
2023-05-09T12:17:46.995Z,85.31
2023-05-09T12:20:14.443Z,85.19
2023-05-09T12:22:43.923Z,85.77
2023-05-09T12:25:12.185Z,85.86
2023-05-09T12:27:40.048Z,85.26
2023-05-09T12:30:12.054Z,85.03
2023-05-09T12:32:40.335Z,81.10
2023-05-09T12:35:09.628Z,81.03
2023-05-09T12:37:36.517Z,78.69
2023-05-09T12:40:13.161Z,76.38
2023-05-09T12:42:43.770Z,74.83
2023-05-09T12:45:11.440Z,76.30
2023-05-09T12:47:45.719Z,75.01
2023-05-09T12:50:13.272Z,75.22
2023-05-09T12:53:02.102Z,75.39
2023-05-09T12:55:31.640Z,75.30
2023-05-09T12:58:03.437Z,73.76
2023-05-09T13:00:46.661Z,72.71
2023-05-09T13:03:37.805Z,69.21
2023-05-09T13:06:06.584Z,69.53
2023-05-09T13:08:33.427Z,69.62
2023-05-09T13:11:11.989Z,69.45
2023-05-09T13:13:42.533Z,69.66
2023-05-09T13:16:10.980Z,70.27
2023-05-09T13:18:38.766Z,68.19
2023-05-09T13:21:05.644Z,68.59
2023-05-09T13:23:32.443Z,67.41
2023-05-09T13:25:59.110Z,69.88
2023-05-09T13:28:25.891Z,68.50
2023-05-09T13:30:52.743Z,68.62
2023-05-09T13:33:25.892Z,67.46
2023-05-09T13:35:53.904Z,67.19
2023-05-09T13:38:20.860Z,68.38
2023-05-09T13:40:47.605Z,66.28
2023-05-09T13:43:14.255Z,66.84
2023-05-09T13:45:41.015Z,65.44
2023-05-09T13:48:08.025Z,65.03
2023-05-09T13:50:34.814Z,65.50
2023-05-09T13:53:01.950Z,66.87
2023-05-09T13:55:29.691Z,66.44
2023-05-09T13:57:56.486Z,63.70
2023-05-09T14:00:26.633Z,64.33
2023-05-09T14:02:53.548Z,65.11
2023-05-09T14:05:20.236Z,63.22
2023-05-09T14:07:47.491Z,62.54
2023-05-09T14:10:14.173Z,63.86
2023-05-09T14:12:40.969Z,64.54
2023-05-09T14:15:08.542Z,63.62
2023-05-09T14:17:37.918Z,64.37
2023-05-09T14:20:05.022Z,66.09
2023-05-09T14:22:31.686Z,64.83
2023-05-09T14:24:58.690Z,66.47
2023-05-09T14:27:27.682Z,67.22
2023-05-09T14:29:54.448Z,67.52
2023-05-09T14:32:21.247Z,65.88
2023-05-09T14:34:52.514Z,65.95
2023-05-09T14:37:19.143Z,66.66
2023-05-09T14:39:46.806Z,64.86
2023-05-09T14:42:14.253Z,66.08
2023-05-09T14:44:41.869Z,67.66
2023-05-09T14:47:10.060Z,68.98
2023-05-09T14:49:37.309Z,68.50
2023-05-09T14:52:06.012Z,68.21
2023-05-09T14:54:32.821Z,66.35
2023-05-09T14:57:02.049Z,66.02
2023-05-09T14:59:29.544Z,66.58
2023-05-09T15:01:56.443Z,66.40
2023-05-09T15:04:25.470Z,66.68
2023-05-09T15:06:52.263Z,67.35
2023-05-09T15:09:19.327Z,67.17
2023-05-09T15:11:48.801Z,66.08
2023-05-09T15:14:16.687Z,65.29
2023-05-09T15:16:43.711Z,66.64
2023-05-09T15:19:10.487Z,65.79
2023-05-09T15:21:37.166Z,65.58
2023-05-09T15:24:05.168Z,65.41
2023-05-09T15:26:32.290Z,65.03
2023-05-09T15:28:59.145Z,64.00
2023-05-09T15:31:26.062Z,63.98
2023-05-09T15:33:52.872Z,62.58
2023-05-09T15:36:19.625Z,63.47
2023-05-09T15:38:49.464Z,62.32
2023-05-09T15:41:16.820Z,64.12
2023-05-09T15:43:43.821Z,63.10
2023-05-09T15:46:10.666Z,63.14
2023-05-09T15:48:37.367Z,62.65
2023-05-09T15:51:04.294Z,63.03
2023-05-09T15:53:31.281Z,63.88
2023-05-09T15:55:58.073Z,63.55
2023-05-09T15:58:24.969Z,63.65
2023-05-09T16:00:51.770Z,61.91
2023-05-09T16:03:18.986Z,61.95
2023-05-09T16:05:45.771Z,62.21
2023-05-09T16:08:12.654Z,61.78
2023-05-09T16:10:39.640Z,61.66
2023-05-09T16:13:07.302Z,62.09
2023-05-09T16:15:34.085Z,61.10
2023-05-09T16:18:00.841Z,61.00
2023-05-09T16:20:27.899Z,61.22
2023-05-09T16:22:54.572Z,61.71
2023-05-09T16:25:21.545Z,61.66
2023-05-09T16:27:48.258Z,61.42
2023-05-09T16:30:16.267Z,60.86
2023-05-09T16:32:43.326Z,62.48
2023-05-09T16:35:10.408Z,61.67
2023-05-09T16:37:37.430Z,60.75
2023-05-09T16:40:04.647Z,60.73
2023-05-09T16:42:31.364Z,59.31
2023-05-09T16:44:58.081Z,60.13
2023-05-09T16:47:25.706Z,59.26
2023-05-09T16:49:52.361Z,59.20
2023-05-09T16:52:19.104Z,59.57
2023-05-09T16:54:45.809Z,59.92
2023-05-09T16:57:16.475Z,59.86
2023-05-09T16:59:43.202Z,60.00
2023-05-09T17:02:09.885Z,59.91
2023-05-09T17:04:37.786Z,60.15
2023-05-09T17:07:04.881Z,60.24
2023-05-09T17:09:32.175Z,60.87
2023-05-09T17:11:59.103Z,59.94
2023-05-09T17:14:26.917Z,60.05
2023-05-09T17:16:56.997Z,60.15
2023-05-09T17:19:25.767Z,60.47
2023-05-09T17:21:52.574Z,60.48
2023-05-09T17:24:30.177Z,60.02
2023-05-09T17:26:56.887Z,60.20
2023-05-09T17:29:23.582Z,59.93
2023-05-09T17:31:50.304Z,59.98
2023-05-09T17:34:16.968Z,59.69
2023-05-09T17:36:43.694Z,59.54
2023-05-09T17:39:12.955Z,59.85
2023-05-09T17:41:39.787Z,59.23
2023-05-09T17:44:06.448Z,59.37
2023-05-09T17:46:33.136Z,59.49
2023-05-09T17:48:59.822Z,59.74
2023-05-09T17:51:27.016Z,59.91
2023-05-09T17:53:53.788Z,60.39
2023-05-09T17:56:21.276Z,61.07
2023-05-09T17:58:52.881Z,60.23
2023-05-09T18:01:20.636Z,60.46
2023-05-09T18:03:47.537Z,60.36
2023-05-09T18:06:14.547Z,61.13
2023-05-09T18:08:41.443Z,61.54
2023-05-09T18:11:08.157Z,61.66
2023-05-09T18:13:35.064Z,62.89
2023-05-09T18:16:02.810Z,64.41
2023-05-09T18:18:31.012Z,65.08
2023-05-09T18:20:58.563Z,66.38
2023-05-09T18:23:26.105Z,67.70
2023-05-09T18:25:54.030Z,68.49
2023-05-09T18:28:27.612Z,69.63
2023-05-09T18:30:56.729Z,70.38
2023-05-09T18:33:24.703Z,71.68
2023-05-09T18:35:53.173Z,72.62
2023-05-09T18:38:19.947Z,73.09
2023-05-09T18:40:48.669Z,73.92
2023-05-09T18:43:16.959Z,74.20
2023-05-09T18:45:45.078Z,74.62
2023-05-09T18:48:12.327Z,74.99
2023-05-09T18:50:39.293Z,76.21
2023-05-09T18:53:06.030Z,76.89
2023-05-09T18:55:32.743Z,77.23
2023-05-09T18:57:59.537Z,77.28
2023-05-09T19:00:26.330Z,77.49
2023-05-09T19:02:53.161Z,77.20
2023-05-09T19:05:20.567Z,77.90
2023-05-09T19:07:47.358Z,78.68
2023-05-09T19:10:17.947Z,79.12
2023-05-09T19:12:46.103Z,79.34
2023-05-09T19:15:12.915Z,79.73
2023-05-09T19:17:39.658Z,80.69
2023-05-09T19:20:07.102Z,80.05
2023-05-09T19:22:35.034Z,80.27
2023-05-09T19:25:01.795Z,81.08
2023-05-09T19:27:28.480Z,80.98
2023-05-09T19:29:55.165Z,80.99
2023-05-09T19:32:22.173Z,81.15
2023-05-09T19:34:48.832Z,81.31
2023-05-09T19:37:15.470Z,81.88
2023-05-09T19:39:42.161Z,82.33
2023-05-09T19:42:08.871Z,82.36
2023-05-09T19:44:35.644Z,82.75
2023-05-09T19:47:05.128Z,83.33
2023-05-09T19:49:32.703Z,83.49
2023-05-09T19:51:59.377Z,83.44
2023-05-09T19:54:27.736Z,83.17
2023-05-09T19:56:54.437Z,83.84
2023-05-09T19:59:21.192Z,84.39
2023-05-09T20:01:47.952Z,84.19
2023-05-09T20:04:14.598Z,85.10
2023-05-09T20:06:41.387Z,84.63
2023-05-09T20:09:08.108Z,84.29
2023-05-09T20:11:34.747Z,84.58
2023-05-09T20:14:01.352Z,84.40
2023-05-09T20:16:28.534Z,84.25
2023-05-09T20:18:55.651Z,84.99
2023-05-09T20:21:22.427Z,85.23
2023-05-09T20:23:49.192Z,85.32
2023-05-09T20:26:17.330Z,85.51
2023-05-09T20:28:47.915Z,85.43
2023-05-09T20:31:14.606Z,86.07
2023-05-09T20:33:41.338Z,85.75
2023-05-09T20:36:09.498Z,86.29
2023-05-09T20:38:36.260Z,86.10
2023-05-09T20:41:03.525Z,86.81
2023-05-09T20:43:30.629Z,86.70
2023-05-09T20:45:57.477Z,86.75
2023-05-09T20:48:24.258Z,86.92
2023-05-09T20:50:50.891Z,87.29
2023-05-09T20:53:17.637Z,87.32
2023-05-09T20:55:44.335Z,87.66
2023-05-09T20:58:14.759Z,88.29
2023-05-09T21:00:41.503Z,88.36
2023-05-09T21:03:10.182Z,88.75
2023-05-09T21:05:36.944Z,88.62
2023-05-09T21:08:03.718Z,89.12
2023-05-09T21:10:30.451Z,89.09
2023-05-09T21:12:57.731Z,89.38
2023-05-09T21:15:25.511Z,89.25
2023-05-09T21:17:52.204Z,89.75
2023-05-09T21:20:19.044Z,89.94
2023-05-09T21:22:46.122Z,90.30
2023-05-09T21:25:13.006Z,90.30
2023-05-09T21:27:39.684Z,90.96
2023-05-09T21:30:07.160Z,91.30
2023-05-09T21:32:33.862Z,91.72
2023-05-09T21:35:02.074Z,92.25
2023-05-09T21:37:28.999Z,92.89
2023-05-09T21:39:55.761Z,92.97
2023-05-09T21:42:23.995Z,92.96
2023-05-09T21:44:50.742Z,93.09
2023-05-09T21:47:17.467Z,93.48
2023-05-09T21:49:44.223Z,93.77
2023-05-09T21:52:10.859Z,94.42
2023-05-09T21:54:37.565Z,94.71
2023-05-09T21:57:04.488Z,94.88
2023-05-09T21:59:31.251Z,94.94
2023-05-09T22:01:58.071Z,95.39
2023-05-09T22:04:24.757Z,95.73
2023-05-09T22:06:56.118Z,96.56
2023-05-09T22:09:23.505Z,96.93
2023-05-09T22:11:50.245Z,96.73
2023-05-09T22:14:16.920Z,96.79
2023-05-09T22:16:43.803Z,97.05
2023-05-09T22:19:10.588Z,97.68
2023-05-09T22:21:37.447Z,97.98
2023-05-09T22:24:04.437Z,98.56
2023-05-09T22:26:31.149Z,98.71
2023-05-09T22:28:57.803Z,99.29
2023-05-09T22:31:24.552Z,99.55
2023-05-09T22:33:51.321Z,100.00
2023-05-09T22:36:19.035Z,100.00
2023-05-09T22:38:45.704Z,100.00
2023-05-09T22:41:12.349Z,100.00
2023-05-09T22:43:39.851Z,100.00
2023-05-09T22:46:07.753Z,100.00
2023-05-09T22:48:34.576Z,100.00
2023-05-09T22:51:01.271Z,100.00
2023-05-09T22:53:28.213Z,100.00
2023-05-09T22:55:54.952Z,100.00
2023-05-09T22:58:22.549Z,100.00
2023-05-09T23:00:49.288Z,100.00
2023-05-09T23:03:16.468Z,100.00
2023-05-09T23:05:43.493Z,100.00
2023-05-09T23:08:10.323Z,100.00
2023-05-09T23:10:37.002Z,100.00
2023-05-09T23:13:04.816Z,100.00
2023-05-09T23:15:31.588Z,100.00
2023-05-09T23:17:58.433Z,100.00
2023-05-09T23:20:26.009Z,100.00
2023-05-09T23:22:52.720Z,100.00
2023-05-09T23:25:19.469Z,100.00
2023-05-09T23:27:46.923Z,100.00
2023-05-09T23:30:15.165Z,100.00
2023-05-09T23:32:43.017Z,100.00
2023-05-09T23:35:10.399Z,100.00
2023-05-09T23:37:39.889Z,100.00
2023-05-09T23:40:07.271Z,100.00
2023-05-09T23:42:34.263Z,100.00
2023-05-09T23:45:04.456Z,100.00
2023-05-09T23:47:31.326Z,100.00
2023-05-09T23:49:58.154Z,100.00
2023-05-09T23:52:24.809Z,100.00
2023-05-09T23:54:51.504Z,100.00
2023-05-09T23:57:18.154Z,100.00
2023-05-09T23:59:45.056Z,100.00
